Search for airport 
image banner adimage banner adimage banner ad
image banner ad

2NV8 - Mercy Air-Pahrump

Located in Pahrump, United States

ICAO - 2NV8, IATA -

Data provided by Airmate  

General information

Coordinates: N36°11'31" W115°59'9"
Elevation is 2650 feet MSL.
 
View others Airports in Nevada

Operational data

Special qualification required
Current time UTC:
Current local time:
Weather at : KINS - Creech Afb ( 52 km )
METAR: KINS 131158Z AUTO 00000KT 10SM CLR 18/M10 A2990 RMK AO2 SLP077 T01841105 10279 20169 53005 $
TAF: TAF KINS 1214/1320 VRB06KT 9999 SKC QNH2991INS BECMG 1218/1219 09009KT 9999 SKC QNH2987INS BECMG 1220/1221 12010G15KT 9999 SKC QNH2981INS BECMG 1300/1301 22012G20KT 9999 SKC QNH2983INS WND 120V220 BECMG 1304/1305 22009KT 9999 SKC QNH2987INS BECMG 1306/1307 VRB06KT 9999 SKC QNH2989INS BECMG 1319/1320 24010G20KT 9999 SKC QNH2988INS TX37/1223Z TN18/1312Z
View NOTAMs / SUP AIP / TFR affecting this airport [VIEW]
Communications frequencies: [VIEW]

Runways:

Airport contact information

Address: Pahrump United States

Satellite view of 2NV8